Time;durP1;ratioP1;P1;durP2;ratioP2;P2;SDS_P1;SDS_P2;PMS_P1;PMS_P2;Temp;Humidity;BMP_temperature;BMP_pressure;BME280_temperature;BME280_humidity;BME280_pressure;Samples;Min_cycle;Max_cycle;Signal;HPM_P1;HPM_P2
2023/10/02 00:01:17;;;;;;;19.30;10.93;;;18.50;79.10;;;;;;5048328;28;20466;-68
2023/10/02 00:03:48;;;;;;;20.67;10.95;;;18.50;79.10;;;;;;5055438;28;20021;-68
2023/10/02 00:06:17;;;;;;;19.33;10.10;;;18.50;79.20;;;;;;5038145;28;20080;-68
2023/10/02 00:08:43;;;;;;;20.48;10.40;;;18.50;79.20;;;;;;5042630;28;20017;-68
2023/10/02 00:14:19;;;;;;;19.98;10.57;;;18.40;79.20;;;;;;5049929;28;20111;-68
2023/10/02 00:17:03;;;;;;;16.88;9.27;;;18.40;79.20;;;;;;5043685;28;20073;-68
2023/10/02 00:19:32;;;;;;;15.20;9.13;;;18.40;79.20;;;;;;5024712;28;20022;-68
2023/10/02 00:22:04;;;;;;;17.60;9.70;;;18.40;79.20;;;;;;5038996;28;20052;-68
2023/10/02 00:24:35;;;;;;;17.02;9.77;;;18.40;79.20;;;;;;5036627;28;20512;-68
2023/10/02 00:27:03;;;;;;;19.55;10.25;;;18.40;79.20;;;;;;5037578;28;20022;-68
2023/10/02 00:29:29;;;;;;;18.58;9.85;;;18.40;79.20;;;;;;5038113;28;20046;-68
2023/10/02 00:31:56;;;;;;;20.13;10.50;;;18.30;79.20;;;;;;5041668;28;20024;-68
2023/10/02 00:34:31;;;;;;;19.40;10.73;;;18.30;79.20;;;;;;5049361;28;20120;-68
2023/10/02 00:37:08;;;;;;;19.83;9.93;;;18.30;79.20;;;;;;5037282;28;20453;-68
2023/10/02 00:39:39;;;;;;;17.02;9.80;;;18.30;79.20;;;;;;5063297;28;20028;-68
2023/10/02 00:42:28;;;;;;;17.33;9.77;;;18.30;79.20;;;;;;5036093;28;20029;-68
2023/10/02 00:44:55;;;;;;;16.52;9.40;;;18.30;79.20;;;;;;5031353;28;20049;-70
2023/10/02 00:47:38;;;;;;;18.95;9.63;;;18.30;79.20;;;;;;5033678;28;20033;-68
2023/10/02 00:50:17;;;;;;;16.77;9.15;;;18.30;79.20;;;;;;5044324;28;20017;-68
2023/10/02 00:52:46;;;;;;;18.25;8.75;;;18.20;79.20;;;;;;5034725;28;20447;-68
2023/10/02 00:55:15;;;;;;;18.90;10.43;;;18.20;79.20;;;;;;5035801;28;20032;-68
2023/10/02 00:57:43;;;;;;;20.27;10.60;;;18.20;79.20;;;;;;5034350;28;20030;-68
2023/10/02 01:00:17;;;;;;;19.85;10.40;;;18.20;79.20;;;;;;5033813;28;20466;-68
2023/10/02 01:02:47;;;;;;;21.45;11.25;;;18.20;79.30;;;;;;5018129;28;20044;-68
2023/10/02 01:05:21;;;;;;;20.08;9.63;;;18.20;79.30;;;;;;5033902;28;20416;-68
2023/10/02 01:07:53;;;;;;;20.85;10.38;;;18.20;79.30;;;;;;5032356;28;20056;-68
2023/10/02 01:10:19;;;;;;;21.08;10.93;;;18.20;79.30;;;;;;5034550;28;20037;-68
2023/10/02 01:12:53;;;;;;;20.60;11.15;;;18.20;79.30;;;;;;5034270;28;20036;-68
2023/10/02 01:15:21;;;;;;;19.05;10.80;;;18.20;79.30;;;;;;5034056;28;20159;-68
2023/10/02 01:17:50;;;;;;;20.25;9.63;;;18.20;79.30;;;;;;5015684;28;20519;-68
2023/10/02 01:20:35;;;;;;;18.73;10.27;;;18.20;79.40;;;;;;5029824;28;20037;-68
2023/10/02 01:23:17;;;;;;;16.77;9.98;;;18.10;79.40;;;;;;5034927;28;20037;-68
2023/10/02 01:25:47;;;;;;;19.10;10.13;;;18.20;79.40;;;;;;5033868;28;20359;-68
2023/10/02 01:28:20;;;;;;;16.48;9.55;;;18.10;79.40;;;;;;5033525;28;20417;-68
2023/10/02 01:30:47;;;;;;;18.60;10.07;;;18.20;79.50;;;;;;5051074;28;20025;-68
2023/10/02 01:35:46;;;;;;;17.75;9.63;;;18.10;79.50;;;;;;5034467;28;20041;-68
2023/10/02 01:38:26;;;;;;;21.80;10.55;;;18.10;79.50;;;;;;5032747;28;20041;-68
2023/10/02 01:41:03;;;;;;;18.92;9.90;;;18.10;79.50;;;;;;5035105;28;20414;-68
2023/10/02 01:43:36;;;;;;;18.52;10.23;;;18.10;79.60;;;;;;5032639;28;20434;-68
2023/10/02 01:46:05;;;;;;;17.95;9.80;;;18.10;79.60;;;;;;5047158;28;20098;-68
2023/10/02 01:48:37;;;;;;;19.70;9.90;;;18.10;79.60;;;;;;5030482;28;20095;-68
2023/10/02 01:51:26;;;;;;;20.80;10.27;;;18.10;79.60;;;;;;5018115;28;20362;-68
2023/10/02 01:54:02;;;;;;;17.25;9.43;;;18.10;79.60;;;;;;5033620;28;20032;-68
2023/10/02 01:56:30;;;;;;;16.38;9.13;;;18.10;79.70;;;;;;5033261;28;20064;-68
2023/10/02 01:59:19;;;;;;;17.98;10.23;;;18.10;79.70;;;;;;5047079;28;20128;-67
2023/10/02 02:01:56;;;;;;;20.55;9.95;;;18.10;79.80;;;;;;5032590;28;20507;-68
2023/10/02 02:04:32;;;;;;;19.00;9.52;;;18.00;79.70;;;;;;5049243;28;20054;-68
2023/10/02 02:07:00;;;;;;;19.25;9.98;;;18.00;79.70;;;;;;5025039;28;20076;-68
2023/10/02 02:09:30;;;;;;;15.82;9.38;;;18.00;79.80;;;;;;5044187;28;20021;-68
2023/10/02 02:12:10;;;;;;;20.13;10.27;;;18.10;79.90;;;;;;5047289;28;20116;-68
2023/10/02 02:14:52;;;;;;;18.17;10.07;;;18.00;79.80;;;;;;5033362;28;20029;-68
2023/10/02 02:17:26;;;;;;;20.73;10.30;;;18.00;79.80;;;;;;5033564;28;20048;-68
2023/10/02 02:19:52;;;;;;;18.13;9.27;;;18.00;79.80;;;;;;5031203;28;20025;-68
2023/10/02 02:22:26;;;;;;;19.83;9.50;;;18.00;79.80;;;;;;5032967;28;20052;-68
2023/10/02 02:25:01;;;;;;;20.73;10.00;;;18.00;79.90;;;;;;5048853;28;20040;-68
2023/10/02 02:27:27;;;;;;;18.75;9.70;;;18.00;79.80;;;;;;5024587;28;20530;-68
2023/10/02 02:29:57;;;;;;;19.15;10.43;;;18.00;79.90;;;;;;5032678;28;20332;-67
2023/10/02 02:32:44;;;;;;;18.37;10.33;;;18.00;79.90;;;;;;5034164;28;20094;-68
2023/10/02 02:35:14;;;;;;;19.05;10.38;;;17.90;79.80;;;;;;5033114;28;20029;-68
2023/10/02 02:37:41;;;;;;;17.85;9.90;;;18.00;79.90;;;;;;5016735;28;20458;-68
2023/10/02 02:40:23;;;;;;;16.55;9.73;;;17.90;79.90;;;;;;5031844;28;20025;-68
2023/10/02 02:42:53;;;;;;;17.77;9.38;;;17.90;79.90;;;;;;5034067;28;20030;-68
2023/10/02 02:45:28;;;;;;;18.67;9.43;;;17.90;79.90;;;;;;5042877;28;20439;-68
2023/10/02 02:48:03;;;;;;;18.85;10.57;;;17.90;79.90;;;;;;5041114;28;20450;-68
2023/10/02 02:50:36;;;;;;;15.65;8.90;;;17.90;79.90;;;;;;5031789;28;20029;-68
2023/10/02 02:53:30;;;;;;;16.60;9.05;;;17.90;79.90;;;;;;5042918;28;20132;-68
2023/10/02 02:56:25;;;;;;;18.05;9.52;;;17.80;79.80;;;;;;5032184;28;20025;-68
2023/10/02 02:58:55;;;;;;;19.65;9.80;;;17.80;79.80;;;;;;5033248;28;20036;-68
2023/10/02 03:01:22;;;;;;;16.33;9.50;;;17.80;79.90;;;;;;5048834;28;20421;-68
2023/10/02 03:03:53;;;;;;;16.38;9.27;;;17.80;79.80;;;;;;5032874;28;20030;-68
2023/10/02 03:06:23;;;;;;;18.25;10.25;;;17.80;79.80;;;;;;5032500;28;20069;-68
2023/10/02 03:08:52;;;;;;;20.90;10.57;;;17.80;79.90;;;;;;5032982;28;20044;-68
2023/10/02 03:11:22;;;;;;;19.67;10.05;;;17.70;79.90;;;;;;5032487;28;20036;-68
2023/10/02 03:13:49;;;;;;;17.58;9.13;;;17.70;79.90;;;;;;5033056;28;20040;-68
2023/10/02 03:16:28;;;;;;;16.58;9.20;;;17.70;80.50;;;;;;5032064;28;20090;-68
2023/10/02 03:18:54;;;;;;;18.35;10.02;;;17.70;79.90;;;;;;5032525;28;20493;-68
2023/10/02 03:21:24;;;;;;;18.48;9.63;;;17.70;79.90;;;;;;5031425;28;20045;-67
2023/10/02 03:24:00;;;;;;;18.60;9.50;;;17.70;79.90;;;;;;5030862;28;20034;-68
2023/10/02 03:29:03;;;;;;;20.40;9.82;;;17.70;79.90;;;;;;5032464;28;20060;-67
2023/10/02 03:31:36;;;;;;;17.63;9.98;;;17.70;79.80;;;;;;5033937;28;20041;-68
2023/10/02 03:34:27;;;;;;;18.17;9.20;;;17.70;79.90;;;;;;5037269;28;20022;-67
2023/10/02 03:37:07;;;;;;;17.07;9.03;;;17.60;79.80;;;;;;5037374;28;20030;-67
2023/10/02 03:39:52;;;;;;;17.80;9.25;;;17.60;79.90;;;;;;5037095;28;20310;-67
2023/10/02 03:42:22;;;;;;;18.20;9.02;;;17.60;79.90;;;;;;5053159;28;20510;-68
2023/10/02 03:44:54;;;;;;;16.05;8.75;;;17.60;79.90;;;;;;5036727;28;20128;-68
2023/10/02 03:47:20;;;;;;;18.70;8.63;;;17.60;79.90;;;;;;5036245;28;20041;-68
2023/10/02 03:49:46;;;;;;;15.88;9.00;;;17.60;79.90;;;;;;5037084;28;20029;-68
2023/10/02 03:52:14;;;;;;;17.73;9.18;;;17.60;79.90;;;;;;5036710;28;20056;-68
2023/10/02 03:54:44;;;;;;;16.92;8.73;;;17.60;79.90;;;;;;5035811;28;20048;-68
2023/10/02 03:57:11;;;;;;;16.60;9.15;;;17.60;79.90;;;;;;5036055;28;20033;-68
2023/10/02 03:59:52;;;;;;;17.17;9.18;;;17.60;79.90;;;;;;5036128;28;20025;-68
2023/10/02 04:02:26;;;;;;;18.10;9.02;;;17.60;79.90;;;;;;5037516;28;20075;-68
2023/10/02 04:04:52;;;;;;;16.80;8.85;;;17.60;79.90;;;;;;5035522;28;20055;-67
2023/10/02 04:07:17;;;;;;;15.77;8.85;;;17.50;79.90;;;;;;5036119;28;20033;-68
2023/10/02 04:09:50;;;;;;;16.17;9.27;;;17.50;80.50;;;;;;5036255;28;20495;-68
2023/10/02 04:12:19;;;;;;;18.45;8.95;;;17.50;79.90;;;;;;5035133;28;20037;-68
2023/10/02 04:14:46;;;;;;;16.88;8.65;;;17.50;79.90;;;;;;5034671;28;20021;-68
2023/10/02 04:17:14;;;;;;;17.02;9.40;;;17.50;79.90;;;;;;5035229;28;20033;-67
2023/10/02 04:19:48;;;;;;;18.30;8.63;;;17.50;79.80;;;;;;5039523;28;20037;-67
2023/10/02 04:22:22;;;;;;;16.25;8.60;;;17.50;79.80;;;;;;5031301;28;20355;-67
2023/10/02 04:24:58;;;;;;;17.08;8.95;;;17.50;79.80;;;;;;5026194;28;20041;-67
2023/10/02 04:32:49;;;;;;;16.45;8.93;;;17.50;79.80;;;;;;5034617;28;20026;-67
2023/10/02 04:38:07;;;;;;;17.75;8.95;;;17.40;79.80;;;;;;5028009;28;20030;-67
2023/10/02 04:40:49;;;;;;;20.02;9.13;;;17.40;79.80;;;;;;5036064;28;20362;-67
2023/10/02 04:43:25;;;;;;;18.85;9.27;;;17.40;79.90;;;;;;5035353;28;20120;-67
2023/10/02 04:46:08;;;;;;;18.05;9.18;;;17.40;79.90;;;;;;5034876;28;20064;-67
2023/10/02 04:48:42;;;;;;;17.90;8.63;;;17.30;79.80;;;;;;5032603;28;20026;-67
2023/10/02 04:51:16;;;;;;;19.60;8.60;;;17.30;79.80;;;;;;5035053;28;20083;-67
2023/10/02 04:53:45;;;;;;;18.05;9.40;;;17.30;79.80;;;;;;5044601;28;20021;-68
2023/10/02 04:58:49;;;;;;;19.35;9.93;;;17.30;79.90;;;;;;5036100;28;20112;-69
2023/10/02 05:01:34;;;;;;;15.80;8.70;;;17.30;79.80;;;;;;5036746;28;20104;-68
2023/10/02 05:04:07;;;;;;;17.52;9.10;;;17.30;79.80;;;;;;5052556;28;20042;-68
2023/10/02 05:06:44;;;;;;;16.83;8.45;;;17.30;79.90;;;;;;5035158;28;20038;-68
2023/10/02 05:11:55;;;;;;;19.17;9.43;;;17.30;79.90;;;;;;5036945;28;20034;-68
2023/10/02 05:14:29;;;;;;;16.75;9.20;;;17.20;79.80;;;;;;5036450;28;20332;-68
2023/10/02 05:19:57;;;;;;;17.35;8.90;;;17.20;79.90;;;;;;5035467;28;20107;-68
2023/10/02 05:22:27;;;;;;;17.52;8.73;;;17.20;79.80;;;;;;5035208;28;20041;-69
2023/10/02 05:25:00;;;;;;;17.98;9.40;;;17.20;79.90;;;;;;5036115;28;20472;-68
2023/10/02 05:27:30;;;;;;;17.25;8.75;;;17.20;79.90;;;;;;5029901;28;20033;-68
2023/10/02 05:30:00;;;;;;;19.13;9.83;;;17.20;79.90;;;;;;5029595;28;20038;-68
2023/10/02 05:32:35;;;;;;;14.82;8.07;;;17.20;80.00;;;;;;5031258;28;20132;-68
2023/10/02 05:35:06;;;;;;;16.42;8.82;;;17.20;80.00;;;;;;5031103;28;20045;-69
2023/10/02 05:37:42;;;;;;;15.90;8.40;;;17.20;80.00;;;;;;5028184;28;20452;-68
2023/10/02 05:45:40;;;;;;;18.58;9.43;;;17.20;80.00;;;;;;5029846;28;20030;-68
2023/10/02 05:48:07;;;;;;;18.85;9.77;;;17.20;80.10;;;;;;5028752;28;20057;-68
2023/10/02 05:50:40;;;;;;;16.95;9.23;;;17.20;80.10;;;;;;5011917;28;20041;-68
2023/10/02 05:53:07;;;;;;;19.90;9.63;;;17.20;80.10;;;;;;5030231;28;20458;-68
2023/10/02 05:55:56;;;;;;;17.52;9.50;;;17.30;80.10;;;;;;5027439;28;20079;-68
2023/10/02 05:58:37;;;;;;;18.15;9.57;;;17.30;80.10;;;;;;5031764;28;20041;-69
2023/10/02 06:01:06;;;;;;;16.92;8.90;;;17.30;80.20;;;;;;5027537;28;20022;-68
2023/10/02 06:03:36;;;;;;;19.40;8.73;;;17.30;80.10;;;;;;5030812;28;20449;-69
2023/10/02 06:06:18;;;;;;;17.23;8.73;;;17.30;80.10;;;;;;5027943;28;20515;-69
2023/10/02 06:09:12;;;;;;;16.98;8.73;;;17.30;80.00;;;;;;5042590;28;20407;-69
2023/10/02 06:11:59;;;;;;;16.35;9.02;;;17.30;80.00;;;;;;5041682;28;20112;-69
2023/10/02 06:14:26;;;;;;;17.35;9.32;;;17.30;80.00;;;;;;5028448;28;20409;-67
2023/10/02 06:16:52;;;;;;;18.40;9.30;;;17.30;80.10;;;;;;5026891;28;20423;-69
2023/10/02 06:19:19;;;;;;;18.05;9.50;;;17.40;80.20;;;;;;5028951;28;20263;-69
2023/10/02 06:21:47;;;;;;;17.52;8.90;;;17.40;80.20;;;;;;5028262;28;20140;-69
2023/10/02 06:24:17;;;;;;;21.55;9.40;;;17.40;80.20;;;;;;5028876;28;20404;-69
2023/10/02 06:26:52;;;;;;;18.53;9.30;;;17.50;80.20;;;;;;5027007;28;20362;-68
2023/10/02 06:29:25;;;;;;;19.25;9.70;;;17.50;80.90;;;;;;5026304;28;20475;-67
2023/10/02 06:31:59;;;;;;;19.92;9.95;;;17.50;80.20;;;;;;5042431;28;20029;-69
2023/10/02 06:34:36;;;;;;;20.02;9.40;;;17.60;80.30;;;;;;5029103;28;20041;-68
2023/10/02 06:37:07;;;;;;;19.48;10.20;;;17.60;80.30;;;;;;5025992;28;20056;-69
2023/10/02 06:39:35;;;;;;;17.25;8.48;;;17.60;80.30;;;;;;5028533;28;20363;-71
2023/10/02 06:42:07;;;;;;;17.83;9.57;;;17.70;80.30;;;;;;5027500;28;20021;-72
2023/10/02 06:44:38;;;;;;;17.73;9.00;;;17.70;80.30;;;;;;5009892;28;20374;-72
2023/10/02 06:47:11;;;;;;;17.33;9.75;;;17.80;80.40;;;;;;5025264;28;20029;-72
2023/10/02 06:49:41;;;;;;;18.20;8.95;;;17.80;80.40;;;;;;5029526;28;20257;-72
2023/10/02 06:52:16;;;;;;;17.23;9.32;;;17.90;80.50;;;;;;5027362;28;20091;-72
2023/10/02 06:54:56;;;;;;;19.98;10.50;;;18.00;80.50;;;;;;5029071;28;20029;-71
2023/10/02 06:57:24;;;;;;;19.30;9.77;;;18.10;80.60;;;;;;5026463;28;20039;-73
2023/10/02 06:59:51;;;;;;;20.98;10.30;;;18.10;80.50;;;;;;5028586;28;20025;-73
2023/10/02 07:02:26;;;;;;;20.73;10.48;;;18.20;80.50;;;;;;5042690;28;20107;-74
2023/10/02 07:04:56;;;;;;;21.08;10.15;;;18.30;80.50;;;;;;5030723;28;20386;-71
2023/10/02 07:07:26;;;;;;;22.13;10.35;;;18.30;80.50;;;;;;5032186;28;20192;-72
2023/10/02 07:10:07;;;;;;;24.38;10.63;;;18.40;80.40;;;;;;5031361;28;20021;-71
2023/10/02 07:12:43;;;;;;;21.20;10.75;;;18.40;80.30;;;;;;5025181;28;20455;-71
2023/10/02 07:15:13;;;;;;;19.20;9.57;;;18.50;80.40;;;;;;5033086;28;20397;-71
2023/10/02 07:17:49;;;;;;;18.38;9.55;;;18.60;80.20;;;;;;5034135;28;20033;-71
2023/10/02 07:20:17;;;;;;;21.58;10.38;;;18.70;80.10;;;;;;5041788;28;20112;-71
2023/10/02 07:22:43;;;;;;;21.48;10.73;;;18.80;80.00;;;;;;5043199;28;20411;-71
2023/10/02 07:25:09;;;;;;;19.65;10.10;;;18.90;79.80;;;;;;5028711;28;20042;-71
2023/10/02 07:27:37;;;;;;;21.13;9.90;;;19.00;79.60;;;;;;5024958;28;20032;-71
2023/10/02 07:30:04;;;;;;;21.73;9.68;;;19.10;79.50;;;;;;5027522;28;20120;-71
2023/10/02 07:32:34;;;;;;;22.40;11.38;;;19.20;79.30;;;;;;5012516;28;20026;-71
2023/10/02 07:35:09;;;;;;;20.08;10.38;;;19.20;79.20;;;;;;5038411;28;20026;-71
2023/10/02 07:37:38;;;;;;;19.73;10.60;;;19.30;79.20;;;;;;5031315;28;20032;-71
2023/10/02 07:40:06;;;;;;;21.60;9.60;;;19.30;79.00;;;;;;5028218;28;20021;-71
2023/10/02 07:42:33;;;;;;;19.77;10.40;;;19.40;78.80;;;;;;5031720;28;20045;-71
2023/10/02 07:45:21;;;;;;;19.77;9.57;;;19.50;78.70;;;;;;5043370;28;20418;-71
2023/10/02 07:50:35;;;;;;;20.88;9.98;;;19.70;78.50;;;;;;5043594;28;20029;-70
2023/10/02 07:53:04;;;;;;;20.80;10.32;;;19.80;78.20;;;;;;5028390;28;20027;-71
2023/10/02 07:55:32;;;;;;;23.92;11.40;;;19.90;77.90;;;;;;5026530;28;20033;-71
2023/10/02 07:58:00;;;;;;;19.90;9.75;;;20.00;77.70;;;;;;5027478;28;20030;-70
2023/10/02 08:00:33;;;;;;;19.42;10.40;;;20.00;77.50;;;;;;5042258;28;20064;-71
2023/10/02 08:03:02;;;;;;;22.13;11.45;;;20.10;77.40;;;;;;5028285;28;20095;-71
2023/10/02 08:05:32;;;;;;;18.13;10.10;;;20.10;77.30;;;;;;5031754;28;20025;-71
2023/10/02 08:08:10;;;;;;;21.60;10.48;;;20.10;77.20;;;;;;5029280;28;20435;-71
2023/10/02 08:10:53;;;;;;;23.15;11.13;;;20.10;77.20;;;;;;5035722;28;20403;-71
2023/10/02 08:13:32;;;;;;;19.52;9.95;;;20.10;77.10;;;;;;5026010;28;20072;-71
2023/10/02 08:16:17;;;;;;;18.90;9.52;;;20.10;77.10;;;;;;5029524;28;20158;-71
2023/10/02 08:18:57;;;;;;;20.38;10.52;;;20.10;77.30;;;;;;5030891;28;20034;-74
2023/10/02 08:21:36;;;;;;;19.10;9.43;;;20.10;77.40;;;;;;5026688;28;20065;-74
2023/10/02 08:24:03;;;;;;;21.95;10.02;;;20.10;77.50;;;;;;5035850;28;20354;-74
2023/10/02 08:26:38;;;;;;;18.90;10.77;;;20.10;77.60;;;;;;5031806;28;20431;-74
2023/10/02 08:29:06;;;;;;;20.42;10.23;;;20.10;77.60;;;;;;5030920;28;20021;-74
2023/10/02 08:31:33;;;;;;;19.08;9.98;;;20.10;77.60;;;;;;5045510;28;20028;-74
2023/10/02 08:34:05;;;;;;;22.48;10.77;;;20.10;77.60;;;;;;5045812;28;20026;-74
2023/10/02 08:36:34;;;;;;;16.58;9.32;;;20.20;77.60;;;;;;5031211;28;20430;-74
2023/10/02 08:39:00;;;;;;;23.55;10.57;;;20.20;77.60;;;;;;5031310;28;20041;-74
2023/10/02 08:41:28;;;;;;;21.40;11.27;;;20.30;77.50;;;;;;5031757;28;20029;-74
2023/10/02 08:43:54;;;;;;;20.02;9.88;;;20.40;77.20;;;;;;5032503;28;20039;-74
2023/10/02 08:46:23;;;;;;;21.20;10.15;;;20.40;77.00;;;;;;5032572;28;20042;-73
2023/10/02 08:48:54;;;;;;;21.17;9.73;;;20.50;77.00;;;;;;5029527;28;20037;-74
2023/10/02 08:51:29;;;;;;;23.65;10.93;;;20.70;76.70;;;;;;5029862;28;20084;-74
2023/10/02 08:53:57;;;;;;;21.83;10.80;;;21.00;76.10;;;;;;5031647;28;20026;-74
2023/10/02 08:56:25;;;;;;;21.30;10.27;;;21.20;75.50;;;;;;5031514;28;20495;-74
2023/10/02 08:59:17;;;;;;;22.33;10.13;;;21.40;75.10;;;;;;5044493;28;20025;-74
2023/10/02 09:01:49;;;;;;;20.45;10.13;;;21.50;74.70;;;;;;5035796;28;20030;-74
2023/10/02 09:04:28;;;;;;;17.50;9.07;;;21.50;74.60;;;;;;5032597;28;20044;-73
2023/10/02 09:06:58;;;;;;;21.38;9.27;;;21.50;74.60;;;;;;5038008;28;20052;-73
2023/10/02 09:11:56;;;;;;;21.23;10.98;;;21.40;74.90;;;;;;5036430;28;20036;-73
2023/10/02 09:14:39;;;;;;;21.80;11.00;;;21.30;75.00;;;;;;5036533;28;20044;-73
2023/10/02 09:17:28;;;;;;;17.60;10.00;;;21.30;75.20;;;;;;5034771;28;20060;-73
2023/10/02 09:20:03;;;;;;;20.92;9.60;;;21.30;75.30;;;;;;5035948;28;20462;-73
2023/10/02 09:22:37;;;;;;;19.85;9.43;;;21.30;75.40;;;;;;5036173;28;20033;-73
2023/10/02 09:25:23;;;;;;;19.60;9.70;;;21.30;75.30;;;;;;5036115;28;20095;-73
2023/10/02 09:27:57;;;;;;;18.17;9.75;;;21.30;75.30;;;;;;5024893;28;20033;-73
2023/10/02 09:33:05;;;;;;;22.60;10.95;;;21.20;75.30;;;;;;5035432;28;20121;-74
2023/10/02 09:35:39;;;;;;;18.60;9.32;;;21.20;75.30;;;;;;5035194;28;20104;-73
2023/10/02 09:38:15;;;;;;;17.20;8.85;;;21.20;75.40;;;;;;5035427;28;20037;-73
2023/10/02 09:43:28;;;;;;;17.45;8.93;;;21.20;75.50;;;;;;5034929;28;20069;-73
2023/10/02 09:45:56;;;;;;;20.02;10.20;;;21.10;75.30;;;;;;5034942;28;20418;-73
2023/10/02 09:51:27;;;;;;;20.02;9.95;;;21.20;75.50;;;;;;5035825;28;20033;-73
2023/10/02 09:54:17;;;;;;;17.27;9.23;;;21.20;75.50;;;;;;5018239;28;20388;-73
2023/10/02 09:57:06;;;;;;;19.40;9.88;;;21.20;75.50;;;;;;5033288;28;20488;-74
2023/10/02 09:59:46;;;;;;;20.50;10.95;;;21.30;75.50;;;;;;5035224;28;20037;-73
2023/10/02 10:05:02;;;;;;;21.45;10.68;;;21.30;75.10;;;;;;5034280;28;20045;-74
2023/10/02 10:07:46;;;;;;;21.83;10.82;;;21.50;74.90;;;;;;5029026;28;20041;-74
2023/10/02 10:10:52;;;;;;;20.92;10.32;;;21.60;74.60;;;;;;5034204;28;20435;-74
2023/10/02 10:13:37;;;;;;;21.52;10.65;;;21.70;74.50;;;;;;5034982;28;20033;-73
2023/10/02 10:16:21;;;;;;;19.45;9.98;;;21.90;74.10;;;;;;5033799;28;20049;-74
2023/10/02 10:24:55;;;;;;;18.77;10.45;;;22.00;74.00;;;;;;5033944;28;20041;-73
2023/10/02 10:27:42;;;;;;;20.23;10.55;;;22.00;74.00;;;;;;5033344;28;20454;-73
2023/10/02 10:30:24;;;;;;;20.85;10.13;;;22.00;73.80;;;;;;5034732;28;20025;-73
2023/10/02 10:35:57;;;;;;;20.55;11.18;;;22.10;73.70;;;;;;5035364;28;20052;-73
2023/10/02 10:38:26;;;;;;;21.02;10.52;;;22.10;73.50;;;;;;5032782;28;20109;-74
2023/10/02 10:41:01;;;;;;;19.88;9.57;;;22.10;73.50;;;;;;5033491;28;20048;-73
2023/10/02 10:46:20;;;;;;;21.60;10.55;;;22.40;73.40;;;;;;5033641;28;20128;-73
2023/10/02 10:49:15;;;;;;;23.15;11.23;;;22.40;73.00;;;;;;5034124;28;20080;-73
2023/10/02 10:51:43;;;;;;;18.58;10.27;;;22.40;73.40;;;;;;5034686;28;20359;-73
2023/10/02 10:54:14;;;;;;;17.80;9.90;;;22.40;72.80;;;;;;5034886;28;20507;-73
2023/10/02 10:56:44;;;;;;;20.05;10.48;;;22.40;72.90;;;;;;5034039;28;20061;-73
2023/10/02 10:59:24;;;;;;;21.75;10.98;;;22.50;72.80;;;;;;5033286;28;20072;-73
2023/10/02 11:04:47;;;;;;;19.80;9.85;;;22.50;72.60;;;;;;5034518;28;20033;-74
2023/10/02 11:07:19;;;;;;;19.02;10.38;;;22.60;72.50;;;;;;5033779;28;20018;-73
2023/10/02 11:13:08;;;;;;;17.90;9.88;;;22.90;72.00;;;;;;5034601;28;20128;-73
2023/10/02 11:15:46;;;;;;;17.75;9.63;;;23.00;71.80;;;;;;5034387;28;20386;-73
2023/10/02 11:18:23;;;;;;;19.50;10.13;;;23.10;71.50;;;;;;5032260;28;20041;-74
2023/10/02 11:20:54;;;;;;;19.23;9.88;;;23.10;71.50;;;;;;5033272;28;20095;-73
2023/10/02 11:23:37;;;;;;;18.95;9.80;;;23.00;71.60;;;;;;5049548;28;20069;-73
2023/10/02 11:26:11;;;;;;;21.50;10.45;;;22.90;71.70;;;;;;5028163;28;20030;-73
2023/10/02 11:28:38;;;;;;;20.50;9.52;;;22.90;72.00;;;;;;5034511;28;20042;-73
2023/10/02 11:31:30;;;;;;;21.08;11.10;;;22.80;72.50;;;;;;5032525;28;20442;-74
2023/10/02 11:34:08;;;;;;;18.35;9.48;;;22.80;72.60;;;;;;5049733;28;20022;-73
2023/10/02 11:36:35;;;;;;;17.73;9.70;;;22.80;72.50;;;;;;5028414;28;20033;-73
2023/10/02 11:39:09;;;;;;;18.17;9.57;;;22.90;72.30;;;;;;5033361;28;20025;-71
2023/10/02 11:41:39;;;;;;;18.35;9.02;;;23.00;72.00;;;;;;5032393;28;20030;-71
2023/10/02 11:44:10;;;;;;;18.92;9.60;;;23.00;71.80;;;;;;5033282;28;20040;-71
2023/10/02 11:46:37;;;;;;;22.90;10.23;;;23.00;71.60;;;;;;5030824;28;20030;-74
2023/10/02 11:49:03;;;;;;;17.80;8.48;;;23.10;71.50;;;;;;5033403;28;20457;-73
2023/10/02 11:51:29;;;;;;;19.63;9.80;;;23.00;72.10;;;;;;5030717;28;20450;-73
2023/10/02 11:53:59;;;;;;;17.10;9.40;;;23.00;71.50;;;;;;5037806;28;20394;-73
2023/10/02 11:56:28;;;;;;;18.13;9.98;;;22.90;71.60;;;;;;5034992;28;20029;-73
2023/10/02 11:58:56;;;;;;;16.38;8.63;;;22.90;71.70;;;;;;5036597;28;20025;-73
2023/10/02 12:01:22;;;;;;;17.88;9.82;;;22.80;71.90;;;;;;5036765;28;20332;-73
2023/10/02 12:03:49;;;;;;;19.42;10.38;;;22.80;72.20;;;;;;5036858;28;20037;-73
2023/10/02 12:06:16;;;;;;;20.45;10.20;;;22.80;72.40;;;;;;5034777;28;20041;-73
2023/10/02 12:08:44;;;;;;;17.88;9.38;;;22.80;72.50;;;;;;5029732;28;20037;-75
2023/10/02 12:11:15;;;;;;;17.83;10.27;;;22.90;72.40;;;;;;5037985;28;20049;-75
2023/10/02 12:13:44;;;;;;;18.95;9.30;;;22.90;72.30;;;;;;5034803;28;20022;-75
2023/10/02 12:16:13;;;;;;;18.80;9.63;;;23.00;72.20;;;;;;5036746;28;20431;-75
2023/10/02 12:18:41;;;;;;;17.13;9.38;;;23.10;72.20;;;;;;5052801;28;20021;-74
2023/10/02 12:21:12;;;;;;;17.65;9.35;;;23.10;72.20;;;;;;5037383;28;20859;-74
2023/10/02 12:23:43;;;;;;;20.17;9.48;;;23.10;72.90;;;;;;5036806;28;20049;-75
2023/10/02 12:26:12;;;;;;;19.52;9.77;;;23.10;72.20;;;;;;5036938;28;20097;-74
2023/10/02 12:28:38;;;;;;;18.17;8.50;;;23.10;72.10;;;;;;5040648;28;20032;-74
2023/10/02 12:31:13;;;;;;;17.80;9.55;;;23.20;72.20;;;;;;5035573;28;20022;-74
2023/10/02 12:33:44;;;;;;;17.60;8.15;;;23.20;72.30;;;;;;5035913;28;20448;-74
2023/10/02 12:36:17;;;;;;;18.65;9.57;;;23.20;72.30;;;;;;5051591;28;20017;-75
2023/10/02 12:38:44;;;;;;;19.60;8.90;;;23.30;72.40;;;;;;5037218;28;20029;-74
2023/10/02 12:41:24;;;;;;;18.25;8.93;;;23.30;72.30;;;;;;5036710;28;20427;-76
2023/10/02 12:43:58;;;;;;;15.88;9.18;;;23.40;72.30;;;;;;5052255;28;20104;-75
2023/10/02 12:46:26;;;;;;;19.80;9.20;;;23.40;72.30;;;;;;5035069;28;20045;-74
2023/10/02 12:48:55;;;;;;;18.55;9.68;;;23.30;72.20;;;;;;5051861;28;20124;-75
2023/10/02 12:51:21;;;;;;;19.60;11.23;;;23.30;72.20;;;;;;5037180;28;20069;-75
2023/10/02 12:53:47;;;;;;;22.83;12.50;;;23.30;72.30;;;;;;5036188;28;20030;-75
2023/10/02 12:56:19;;;;;;;21.27;10.75;;;23.30;72.50;;;;;;5035027;28;20033;-75
2023/10/02 12:58:49;;;;;;;22.77;10.90;;;23.20;72.70;;;;;;5037210;28;20035;-75
2023/10/02 13:01:16;;;;;;;20.13;11.73;;;23.20;72.90;;;;;;5035722;28;20021;-75
2023/10/02 13:03:42;;;;;;;22.73;11.88;;;23.30;73.00;;;;;;5036552;28;20495;-75
2023/10/02 13:06:12;;;;;;;21.90;12.27;;;23.20;72.90;;;;;;5033706;28;20037;-75
2023/10/02 13:08:45;;;;;;;24.02;11.55;;;23.20;73.00;;;;;;5028805;28;20031;-75
2023/10/02 13:11:12;;;;;;;22.08;12.52;;;23.20;73.10;;;;;;5035401;28;20339;-75
2023/10/02 13:13:45;;;;;;;24.15;12.23;;;23.20;73.20;;;;;;5036867;28;20033;-74
2023/10/02 13:16:11;;;;;;;23.02;12.07;;;23.20;73.30;;;;;;5034624;28;20033;-75
2023/10/02 13:18:38;;;;;;;21.45;11.95;;;23.20;73.30;;;;;;5036641;28;20119;-75
2023/10/02 13:21:08;;;;;;;23.95;12.73;;;23.20;73.40;;;;;;5034640;28;20033;-75
2023/10/02 13:23:38;;;;;;;22.25;11.20;;;23.20;73.30;;;;;;5036479;28;20465;-75
2023/10/02 13:26:10;;;;;;;25.52;11.65;;;23.20;73.30;;;;;;5035016;28;20129;-75
2023/10/02 13:28:37;;;;;;;24.45;11.43;;;23.20;73.40;;;;;;5035780;28;20022;-75
2023/10/02 13:31:12;;;;;;;21.40;11.48;;;23.20;73.40;;;;;;5035983;28;20026;-75
2023/10/02 13:33:40;;;;;;;21.63;11.93;;;23.20;73.50;;;;;;5036254;28;20083;-76
2023/10/02 13:36:07;;;;;;;24.73;11.38;;;23.20;73.60;;;;;;5033602;28;20029;-75
2023/10/02 13:38:36;;;;;;;21.77;11.70;;;23.10;73.60;;;;;;5044744;28;20037;-75
2023/10/02 13:41:06;;;;;;;23.67;11.98;;;23.10;73.60;;;;;;5033380;28;20022;-75
2023/10/02 13:43:32;;;;;;;26.38;13.23;;;23.10;73.60;;;;;;5034729;28;20053;-74
2023/10/02 13:45:59;;;;;;;20.90;11.32;;;23.20;73.70;;;;;;5034008;28;20032;-76
2023/10/02 13:48:25;;;;;;;23.92;12.50;;;23.10;73.60;;;;;;5033485;28;20021;-74
2023/10/02 13:50:50;;;;;;;22.38;12.30;;;23.10;73.60;;;;;;5047218;28;20040;-74
2023/10/02 13:53:16;;;;;;;22.02;11.43;;;23.10;73.70;;;;;;5033881;28;20033;-75
2023/10/02 13:55:42;;;;;;;22.10;12.68;;;23.10;73.80;;;;;;5032313;28;20084;-75
2023/10/02 13:58:07;;;;;;;21.20;11.93;;;23.10;73.70;;;;;;5035919;28;20443;-75
2023/10/02 14:00:39;;;;;;;21.15;11.30;;;23.10;73.60;;;;;;5034165;28;20107;-73
2023/10/02 14:03:09;;;;;;;23.63;11.23;;;23.10;73.60;;;;;;5036339;28;20041;-74
2023/10/02 14:05:35;;;;;;;23.85;11.95;;;23.10;73.70;;;;;;5023020;28;20406;-74